Pagrindinis puslapis
METAR-TAF:

METAR-TAF

Oro uostai :

Asjutas, Egiptas

platuma: 27-03N, ilguma: 031-01E, Aukštis: 226 m

Dabartinis oras

Ataskaita buvo paskelbta 2 valandos ir 29 minutes, ne 17:00 UTC
Vėjas 9 kt iš Šiaurės
Temperatūra 24°C
Drėgmė 44%
Slėgis 1020 hPa
Matomumas 10 km arba daugiau
nėra debesų žemiau 1500 m ir nėra kamuolinių lietaus debesų

METAR: HEAT 221700Z 36009KT CAVOK 24/11 Q1020 NOSIG

Laikas: 21:29 (19:29 UTC)

Prognozė

Ataskaita buvo paskelbta 2 valandos ir 29 minutes, ne 17:00 UTC
Prognozė galioja nuo 22 metu 18 UTC su 23 metu 24 UTC
Vėjas 13 kt iš Šiaurės/Šiaurės Vakarų
Matomumas 10 km arba daugiau
nėra debesų žemiau 1500 m ir nėra kamuolinių lietaus debesų

TAF: HEAT 221700Z 2218/2324 33013KT CAVOK

Orai ataskaitas ir orų prognozės (METAR, TAF).

turimą stotys yra geltonos ir raudonos taškus žemėlapyje.

Perkelti pele per norėdami pamatyti stoties vardą.

Tada spustelėkite, norėdami matyti oro stebėjimo ir prognozės.

Norėdami pakeisti žemėlapį: spustelėkite ant žalios mygtukų su juodo kryžiaus žemyn,; žalią mygtuką su brūkšneliu, jei norite nutolinti; arba žalių rodyklių gretimoms žemėlapius.


METAR-TAF: